Time,TemperatureF,DewpointF,PressureIn,WindDirection,WindDirectionDegrees,WindSpeedMPH,WindSpeedGustMPH,Humidity,HourlyPrecipIn,Conditions,Clouds,dailyrainin,SoftwareType,DateUTC
2013-07-23 00:10:00,77.2,65.0,29.57,SW,220,12.0,20.0,67,0.00,,,0.00,weatherlink.com 1.10,2013-07-23 04:10:00,
2013-07-23 00:25:00,76.7,66.0,29.55,SW,229,19.0,22.0,69,0.00,,,0.00,weatherlink.com 1.10,2013-07-23 04:25:00,
2013-07-23 00:41:00,76.2,66.0,29.57,SW,235,16.0,18.0,70,0.00,,,0.00,weatherlink.com 1.10,2013-07-23 04:41:00,
2013-07-23 00:56:00,75.7,66.0,29.57,West,263,11.0,21.0,72,0.00,,,0.00,weatherlink.com 1.10,2013-07-23 04:56:00,
2013-07-23 01:11:00,71.7,67.0,29.57,SSW,200,6.0,14.0,84,0.01,,,0.01,weatherlink.com 1.10,2013-07-23 05:11:00,
2013-07-23 01:26:00,71.2,67.0,29.57,WSW,248,9.0,13.0,86,0.01,,,0.00,weatherlink.com 1.10,2013-07-23 05:26:00,
2013-07-23 01:41:00,72.2,67.0,29.58,WSW,254,11.0,18.0,83,0.02,,,0.01,weatherlink.com 1.10,2013-07-23 05:41:00,
2013-07-23 01:56:00,70.4,66.0,29.58,SW,236,9.0,13.0,87,0.02,,,0.02,weatherlink.com 1.10,2013-07-23 05:56:00,
2013-07-23 02:11:00,70.1,65.0,29.57,SW,231,9.0,12.0,85,0.02,,,0.02,weatherlink.com 1.10,2013-07-23 06:11:00,
2013-07-23 02:26:00,69.7,66.0,29.58,WSW,243,7.0,11.0,88,0.02,,,0.02,weatherlink.com 1.10,2013-07-23 06:26:00,
2013-07-23 02:41:00,69.6,67.0,29.58,NW,308,9.0,11.0,90,0.01,,,0.02,weatherlink.com 1.10,2013-07-23 06:41:00,
2013-07-23 02:56:00,69.4,67.0,29.58,NW,305,9.0,14.0,91,0.00,,,0.02,weatherlink.com 1.10,2013-07-23 06:56:00,
2013-07-23 03:11:00,68.7,67.0,29.59,NW,316,7.0,10.0,94,0.00,,,0.02,weatherlink.com 1.10,2013-07-23 07:11:00,
2013-07-23 03:26:00,68.2,65.0,29.59,North,355,16.0,18.0,89,0.00,,,0.02,weatherlink.com 1.10,2013-07-23 07:26:00,
2013-07-23 03:41:00,67.7,63.0,29.59,North,349,10.0,15.0,86,0.00,,,0.02,weatherlink.com 1.10,2013-07-23 07:41:00,
2013-07-23 03:56:00,67.5,64.0,29.59,NNE,15,5.0,11.0,87,0.00,,,0.02,weatherlink.com 1.10,2013-07-23 07:56:00,
2013-07-23 04:11:00,67.5,64.0,29.59,North,355,7.0,11.0,87,0.00,,,0.02,weatherlink.com 1.10,2013-07-23 08:11:00,
2013-07-23 04:26:00,67.4,64.0,29.59,North,350,9.0,13.0,88,0.00,,,0.02,weatherlink.com 1.10,2013-07-23 08:26:00,
2013-07-23 04:41:00,67.4,64.0,29.59,NNE,15,8.0,13.0,87,0.00,,,0.02,weatherlink.com 1.10,2013-07-23 08:41:00,
2013-07-23 04:56:00,67.1,62.0,29.59,NNW,345,7.0,14.0,84,0.00,,,0.02,weatherlink.com 1.10,2013-07-23 08:56:00,
2013-07-23 05:11:00,66.9,61.0,29.60,North,355,7.0,16.0,81,0.00,,,0.02,weatherlink.com 1.10,2013-07-23 09:11:00,
2013-07-23 05:26:00,66.8,60.0,29.61,NNW,337,13.0,18.0,80,0.00,,,0.02,weatherlink.com 1.10,2013-07-23 09:26:00,
2013-07-23 05:41:00,66.3,59.0,29.61,NNW,334,14.0,21.0,78,0.00,,,0.02,weatherlink.com 1.10,2013-07-23 09:41:00,
2013-07-23 05:56:00,65.7,59.0,29.62,NNW,342,15.0,20.0,78,0.00,,,0.02,weatherlink.com 1.10,2013-07-23 09:56:00,
2013-07-23 06:11:00,65.2,59.0,29.63,North,350,8.0,20.0,79,0.00,,,0.02,weatherlink.com 1.10,2013-07-23 10:11:00,
2013-07-23 06:26:00,64.8,59.0,29.63,North,5,7.0,19.0,81,0.00,,,0.02,weatherlink.com 1.10,2013-07-23 10:26:00,
2013-07-23 06:41:00,64.3,59.0,29.63,NNE,15,9.0,16.0,82,0.00,,,0.02,weatherlink.com 1.10,2013-07-23 10:41:00,
2013-07-23 06:56:00,63.9,58.0,29.64,North,11,11.0,19.0,82,0.00,,,0.02,weatherlink.com 1.10,2013-07-23 10:56:00,
2013-07-23 07:11:00,63.5,56.0,29.64,North,351,13.0,19.0,76,0.00,,,0.02,weatherlink.com 1.10,2013-07-23 11:11:00,
2013-07-23 07:27:00,62.9,55.0,29.64,North,360,14.0,22.0,76,0.00,,,0.02,weatherlink.com 1.10,2013-07-23 11:27:00,
2013-07-23 07:42:00,62.3,56.0,29.64,North,360,9.0,21.0,79,0.00,,,0.02,weatherlink.com 1.10,2013-07-23 11:42:00,
2013-07-23 07:57:00,62.7,56.0,29.64,NNW,348,8.0,17.0,80,0.00,,,0.02,weatherlink.com 1.10,2013-07-23 11:57:00,
2013-07-23 08:12:00,62.7,56.0,29.64,NNE,30,7.0,20.0,80,0.00,,,0.02,weatherlink.com 1.10,2013-07-23 12:12:00,
2013-07-23 08:27:00,62.2,55.0,29.64,NNW,346,15.0,23.0,77,0.00,,,0.02,weatherlink.com 1.10,2013-07-23 12:27:00,
2013-07-23 08:42:00,61.5,54.0,29.65,North,355,13.0,24.0,77,0.00,,,0.02,weatherlink.com 1.10,2013-07-23 12:42:00,
2013-07-23 08:57:00,62.3,55.0,29.65,NNW,342,20.0,24.0,76,0.00,,,0.02,weatherlink.com 1.10,2013-07-23 12:57:00,
2013-07-23 09:12:00,61.9,54.0,29.65,NNW,334,17.0,26.0,75,0.00,,,0.02,weatherlink.com 1.10,2013-07-23 13:12:00,
2013-07-23 09:27:00,62.4,54.0,29.65,NNW,347,15.0,24.0,75,0.00,,,0.02,weatherlink.com 1.10,2013-07-23 13:27:00,
2013-07-23 09:42:00,62.6,54.0,29.66,NNE,15,13.0,23.0,73,0.00,,,0.02,weatherlink.com 1.10,2013-07-23 13:42:00,
2013-07-23 09:57:00,61.7,53.0,29.67,North,360,10.0,24.0,73,0.00,,,0.02,weatherlink.com 1.10,2013-07-23 13:57:00,
2013-07-23 10:12:00,61.7,54.0,29.67,North,350,19.0,22.0,75,0.00,,,0.02,weatherlink.com 1.10,2013-07-23 14:12:00,
2013-07-23 10:27:00,61.2,54.0,29.68,NNW,333,13.0,19.0,76,0.00,,,0.02,weatherlink.com 1.10,2013-07-23 14:27:00,
2013-07-23 10:42:00,61.3,53.0,29.68,ENE,62,17.0,26.0,75,0.00,,,0.02,weatherlink.com 1.10,2013-07-23 14:42:00,
2013-07-23 10:57:00,61.3,54.0,29.68,North,355,18.0,23.0,76,0.00,,,0.02,weatherlink.com 1.10,2013-07-23 14:57:00,
2013-07-23 11:12:00,61.2,53.0,29.69,North,5,15.0,23.0,75,0.00,,,0.02,weatherlink.com 1.10,2013-07-23 15:12:00,
2013-07-23 11:27:00,61.2,53.0,29.70,North,360,12.0,23.0,75,0.00,,,0.02,weatherlink.com 1.10,2013-07-23 15:27:00,
2013-07-23 11:42:00,60.8,53.0,29.71,NW,315,13.0,28.0,76,0.00,,,0.02,weatherlink.com 1.10,2013-07-23 15:42:00,
2013-07-23 11:57:00,60.7,53.0,29.72,NNW,341,11.0,25.0,76,0.00,,,0.02,weatherlink.com 1.10,2013-07-23 15:57:00,
2013-07-23 12:12:00,61.0,53.0,29.73,NNW,342,14.0,24.0,74,0.00,,,0.02,weatherlink.com 1.10,2013-07-23 16:12:00,
2013-07-23 12:27:00,60.9,53.0,29.73,NW,315,14.0,23.0,74,0.00,,,0.02,weatherlink.com 1.10,2013-07-23 16:27:00,
2013-07-23 12:42:00,60.4,53.0,29.74,North,5,11.0,24.0,76,0.00,,,0.02,weatherlink.com 1.10,2013-07-23 16:42:00,
2013-07-23 12:57:00,60.4,52.0,29.74,NNW,344,13.0,25.0,74,0.00,,,0.02,weatherlink.com 1.10,2013-07-23 16:57:00,
2013-07-23 13:12:00,60.2,52.0,29.75,NNW,344,12.0,26.0,75,0.00,,,0.02,weatherlink.com 1.10,2013-07-23 17:12:00,
2013-07-23 13:27:00,61.0,52.0,29.74,NNW,328,12.0,20.0,73,0.00,,,0.02,weatherlink.com 1.10,2013-07-23 17:27:00,
2013-07-23 13:42:00,60.5,52.0,29.74,NNW,344,11.0,22.0,74,0.00,,,0.02,weatherlink.com 1.10,2013-07-23 17:42:00,
2013-07-23 13:57:00,60.8,52.0,29.74,NNE,24,19.0,24.0,72,0.00,,,0.02,weatherlink.com 1.10,2013-07-23 17:57:00,
2013-07-23 14:12:00,60.5,53.0,29.75,NNW,344,15.0,22.0,75,0.00,,,0.02,weatherlink.com 1.10,2013-07-23 18:12:00,
2013-07-23 14:28:00,59.3,52.0,29.76,NNW,348,17.0,26.0,76,0.00,,,0.02,weatherlink.com 1.10,2013-07-23 18:28:00,
2013-07-23 14:43:00,59.5,52.0,29.77,NNW,334,11.0,24.0,76,0.00,,,0.02,weatherlink.com 1.10,2013-07-23 18:43:00,
2013-07-23 15:13:00,58.7,51.0,29.78,North,5,11.0,26.0,76,0.00,,,0.02,weatherlink.com 1.10,2013-07-23 19:13:00,
2013-07-23 15:43:00,60.0,51.0,29.78,NNW,348,13.0,27.0,72,0.00,,,0.02,weatherlink.com 1.10,2013-07-23 19:43:00,
2013-07-23 15:58:00,60.4,50.0,29.78,North,355,14.0,28.0,69,0.00,,,0.02,weatherlink.com 1.10,2013-07-23 19:58:00,
2013-07-23 16:13:00,60.4,51.0,29.79,NNE,17,14.0,28.0,70,0.00,,,0.02,weatherlink.com 1.10,2013-07-23 20:13:00,
2013-07-23 16:58:00,61.1,51.0,29.80,NNE,17,21.0,30.0,69,0.00,,,0.02,weatherlink.com 1.10,2013-07-23 20:58:00,
2013-07-23 17:13:00,61.1,50.0,29.79,NNW,331,15.0,30.0,68,0.00,,,0.02,weatherlink.com 1.10,2013-07-23 21:13:00,
2013-07-23 17:28:00,61.7,51.0,29.80,NNE,15,12.0,32.0,69,0.00,,,0.02,weatherlink.com 1.10,2013-07-23 21:28:00,
2013-07-23 17:43:00,61.8,51.0,29.80,NNW,342,19.0,30.0,68,0.00,,,0.02,weatherlink.com 1.10,2013-07-23 21:43:00,
2013-07-23 17:58:00,61.3,51.0,29.81,North,5,15.0,29.0,69,0.00,,,0.02,weatherlink.com 1.10,2013-07-23 21:58:00,
2013-07-23 18:13:00,60.9,50.0,29.81,NNE,32,15.0,34.0,68,0.00,,,0.02,weatherlink.com 1.10,2013-07-23 22:13:00,
2013-07-23 18:28:00,61.0,51.0,29.82,North,5,12.0,28.0,69,0.00,,,0.02,weatherlink.com 1.10,2013-07-23 22:28:00,
2013-07-23 18:43:00,60.6,49.0,29.82,North,350,17.0,29.0,65,0.00,,,0.02,weatherlink.com 1.10,2013-07-23 22:43:00,
2013-07-23 19:13:00,61.3,48.0,29.83,NNE,20,16.0,29.0,62,0.00,,,0.02,weatherlink.com 1.10,2013-07-23 23:13:00,
2013-07-23 19:28:00,61.2,49.0,29.83,NNE,22,23.0,29.0,64,0.00,,,0.02,weatherlink.com 1.10,2013-07-23 23:28:00,
2013-07-23 19:43:00,60.9,49.0,29.84,North,5,15.0,29.0,64,0.00,,,0.02,weatherlink.com 1.10,2013-07-23 23:43:00,
2013-07-23 19:58:00,61.1,49.0,29.85,North,5,13.0,25.0,64,0.00,,,0.02,weatherlink.com 1.10,2013-07-23 23:58:00,
2013-07-23 20:13:00,61.3,49.0,29.85,NNE,22,14.0,25.0,64,0.00,,,0.02,weatherlink.com 1.10,2013-07-24 00:13:00,
2013-07-23 20:28:00,61.1,48.0,29.85,NE,38,12.0,22.0,62,0.00,,,0.02,weatherlink.com 1.10,2013-07-24 00:28:00,
2013-07-23 20:43:00,60.9,49.0,29.85,NE,42,14.0,25.0,64,0.00,,,0.02,weatherlink.com 1.10,2013-07-24 00:43:00,
2013-07-23 20:58:00,60.9,49.0,29.85,NNE,17,11.0,22.0,64,0.00,,,0.02,weatherlink.com 1.10,2013-07-24 00:58:00,
2013-07-23 21:13:00,60.7,48.0,29.85,NE,35,7.0,22.0,64,0.00,,,0.02,weatherlink.com 1.10,2013-07-24 01:13:00,
2013-07-23 21:28:00,60.5,48.0,29.86,NE,55,10.0,24.0,63,0.00,,,0.02,weatherlink.com 1.10,2013-07-24 01:28:00,
2013-07-23 21:43:00,60.5,47.0,29.86,NE,35,13.0,23.0,62,0.00,,,0.02,weatherlink.com 1.10,2013-07-24 01:43:00,
2013-07-23 21:58:00,60.7,49.0,29.86,NNE,12,12.0,21.0,65,0.00,,,0.02,weatherlink.com 1.10,2013-07-24 01:58:00,
2013-07-23 22:13:00,60.8,48.0,29.86,NE,36,17.0,25.0,62,0.00,,,0.02,weatherlink.com 1.10,2013-07-24 02:13:00,
2013-07-23 22:28:00,60.8,49.0,29.87,North,5,18.0,25.0,65,0.00,,,0.02,weatherlink.com 1.10,2013-07-24 02:28:00,
2013-07-23 22:43:00,60.8,48.0,29.87,NNE,19,16.0,24.0,64,0.00,,,0.02,weatherlink.com 1.10,2013-07-24 02:43:00,
2013-07-23 22:58:00,60.7,48.0,29.88,North,10,16.0,24.0,64,0.00,,,0.02,weatherlink.com 1.10,2013-07-24 02:58:00,
2013-07-23 23:13:00,60.8,48.0,29.87,NE,35,17.0,22.0,64,0.00,,,0.02,weatherlink.com 1.10,2013-07-24 03:13:00,
2013-07-23 23:28:00,60.8,50.0,29.88,NNE,13,15.0,22.0,67,0.00,,,0.02,weatherlink.com 1.10,2013-07-24 03:28:00,
2013-07-23 23:43:00,60.8,50.0,29.88,NNE,16,13.0,24.0,67,0.00,,,0.02,weatherlink.com 1.10,2013-07-24 03:43:00,